createdAt,value
2018-04-06T00:01:30.907Z,29.00
2018-04-06T00:03:58.548Z,24.40
2018-04-06T00:06:26.043Z,33.07
2018-04-06T00:08:53.539Z,23.20
2018-04-06T00:11:21.039Z,28.70
2018-04-06T00:13:48.667Z,32.63
2018-04-06T00:16:16.181Z,33.07
2018-04-06T00:18:44.494Z,27.27
2018-04-06T00:21:12.006Z,26.40
2018-04-06T00:23:39.687Z,36.53
2018-04-06T00:26:07.487Z,28.07
2018-04-06T00:28:35.033Z,27.70
2018-04-06T00:31:02.992Z,21.93
2018-04-06T00:33:30.488Z,22.30
2018-04-06T00:35:58.280Z,31.80
2018-04-06T00:38:25.773Z,29.63
2018-04-06T00:40:53.415Z,45.57
2018-04-06T00:43:20.916Z,33.40
2018-04-06T00:45:49.166Z,37.23
2018-04-06T00:48:16.757Z,41.03
2018-04-06T00:50:44.358Z,16.33
2018-04-06T00:53:24.367Z,24.33
2018-04-06T00:55:52.019Z,33.10
2018-04-06T00:58:19.515Z,29.43
2018-04-06T01:00:47.262Z,30.53
2018-04-06T01:03:14.758Z,29.33
2018-04-06T01:05:42.284Z,37.50
2018-04-06T01:08:10.223Z,24.93
2018-04-06T01:10:37.927Z,39.57
2018-04-06T01:13:05.443Z,25.60
2018-04-06T01:15:32.943Z,24.60
2018-04-06T01:18:01.184Z,33.33
2018-04-06T01:20:28.711Z,35.87
2018-04-06T01:22:56.236Z,21.47
2018-04-06T01:25:23.957Z,25.30
2018-04-06T01:27:51.721Z,19.00
2018-04-06T01:30:19.484Z,34.43
2018-04-06T01:32:47.603Z,39.57
2018-04-06T01:35:15.833Z,32.13
2018-04-06T01:37:43.334Z,45.53
2018-04-06T01:40:10.859Z,22.23
2018-04-06T01:42:38.383Z,23.23
2018-04-06T01:45:06.028Z,26.47
2018-04-06T01:47:33.531Z,48.00
2018-04-06T01:50:01.809Z,16.00
2018-04-06T01:52:30.112Z,29.87
2018-04-06T01:54:58.652Z,32.57
2018-04-06T01:57:26.163Z,24.57
2018-04-06T01:59:53.787Z,30.30
2018-04-06T02:02:21.328Z,24.97
2018-04-06T02:04:49.647Z,22.93
2018-04-06T02:07:17.203Z,13.57
2018-04-06T02:09:44.892Z,20.03
2018-04-06T02:12:12.427Z,28.43
2018-04-06T02:14:39.914Z,28.03
2018-04-06T02:17:08.319Z,32.63
2018-04-06T02:19:35.992Z,27.13
2018-04-06T02:22:03.546Z,29.53
2018-04-06T02:24:31.051Z,21.87
2018-04-06T02:26:59.344Z,18.73
2018-04-06T02:29:26.839Z,32.93
2018-04-06T02:31:54.346Z,29.20
2018-04-06T02:34:21.849Z,22.13
2018-04-06T02:36:49.501Z,30.87
2018-04-06T02:39:17.014Z,30.00
2018-04-06T02:41:45.550Z,27.77
2018-04-06T02:44:13.047Z,26.20
2018-04-06T02:46:40.556Z,38.77
2018-04-06T02:49:08.055Z,37.03
2018-04-06T02:51:36.348Z,31.13
2018-04-06T02:54:03.998Z,28.93
2018-04-06T02:56:31.499Z,14.13
2018-04-06T02:58:59.005Z,21.60
2018-04-06T03:01:26.510Z,24.40
2018-04-06T03:03:54.800Z,25.07
2018-04-06T03:06:22.313Z,33.23
2018-04-06T03:08:50.004Z,21.73
2018-04-06T03:11:17.512Z,25.03
2018-04-06T03:13:45.020Z,44.03
2018-04-06T03:16:12.515Z,25.83
2018-04-06T03:18:40.031Z,29.87
2018-04-06T03:21:07.532Z,23.77
2018-04-06T03:23:35.564Z,26.83
2018-04-06T03:26:03.092Z,26.57
2018-04-06T03:28:30.599Z,29.60
2018-04-06T03:30:58.213Z,45.07
2018-04-06T03:33:26.734Z,16.47
2018-04-06T03:35:54.256Z,30.13
2018-04-06T03:38:22.643Z,42.47
2018-04-06T03:40:50.152Z,39.33
2018-04-06T03:43:17.727Z,39.57
2018-04-06T03:45:46.131Z,15.40
2018-04-06T03:48:13.637Z,31.27
2018-04-06T03:50:41.895Z,45.00
2018-04-06T03:53:09.439Z,40.70
2018-04-06T03:55:36.932Z,35.23
2018-04-06T03:58:04.436Z,32.27
2018-04-06T04:00:32.139Z,27.43
2018-04-06T04:02:59.639Z,16.47
2018-04-06T04:05:27.372Z,33.80
2018-04-06T04:07:55.124Z,32.23
2018-04-06T04:10:22.888Z,17.47
2018-04-06T04:12:52.114Z,18.37
2018-04-06T04:15:19.603Z,30.30
2018-04-06T04:17:47.123Z,34.73
2018-04-06T04:20:14.618Z,34.23
2018-04-06T04:22:42.315Z,23.60
2018-04-06T04:25:09.824Z,25.77
2018-04-06T04:27:37.535Z,28.50
2018-04-06T04:30:05.299Z,16.23
2018-04-06T04:32:33.065Z,32.57
2018-04-06T04:35:00.571Z,30.97
2018-04-06T04:37:28.068Z,33.90
2018-04-06T04:39:55.624Z,34.87
2018-04-06T04:42:24.123Z,24.10
2018-04-06T04:44:51.892Z,24.87
2018-04-06T04:47:19.651Z,31.00
2018-04-06T04:49:47.355Z,25.40
2018-04-06T04:52:14.865Z,26.33
2018-04-06T04:54:42.640Z,23.67
2018-04-06T04:57:10.144Z,35.80
2018-04-06T04:59:38.575Z,38.67
2018-04-06T05:02:06.107Z,26.00
2018-04-06T05:04:33.603Z,27.23
2018-04-06T05:07:01.162Z,30.10
2018-04-06T05:09:30.173Z,23.60
2018-04-06T05:11:57.895Z,36.70
2018-04-06T05:14:25.680Z,28.67
2018-04-06T05:16:53.425Z,15.37
2018-04-06T05:19:20.924Z,32.63
2018-04-06T05:21:48.960Z,27.33
2018-04-06T05:24:16.712Z,31.27
2018-04-06T05:26:44.443Z,25.27
2018-04-06T05:29:12.063Z,30.37
2018-04-06T05:31:39.575Z,23.13
2018-04-06T05:34:07.888Z,20.00
2018-04-06T05:36:35.676Z,38.23
2018-04-06T05:39:04.032Z,23.27
2018-04-06T05:41:31.671Z,17.83
2018-04-06T05:43:59.405Z,25.33
2018-04-06T05:46:26.899Z,35.63
2018-04-06T05:48:54.655Z,35.87
2018-04-06T05:51:22.158Z,24.53
2018-04-06T05:53:49.970Z,22.00
2018-04-06T05:56:17.466Z,28.50
2018-04-06T05:58:44.973Z,32.03
2018-04-06T06:01:12.532Z,23.73
2018-04-06T06:03:40.316Z,32.20
2018-04-06T06:06:07.826Z,31.77
2018-04-06T06:08:35.504Z,23.73
2018-04-06T06:11:03.007Z,26.40
2018-04-06T06:13:30.762Z,20.60
2018-04-06T06:15:58.268Z,29.37
2018-04-06T06:18:25.780Z,33.17
2018-04-06T06:20:54.056Z,18.37
2018-04-06T06:23:21.817Z,36.57
2018-04-06T06:25:50.087Z,12.73
2018-04-06T06:28:17.582Z,22.97
2018-04-06T06:30:45.112Z,21.80
2018-04-06T06:33:12.612Z,30.57
2018-04-06T06:35:40.324Z,22.40
2018-04-06T06:38:07.823Z,33.93
2018-04-06T06:40:35.545Z,21.30
2018-04-06T06:43:04.105Z,23.93
2018-04-06T06:45:32.341Z,21.40
2018-04-06T06:48:00.068Z,45.60
2018-04-06T06:50:27.598Z,24.00
2018-04-06T06:52:55.091Z,36.97
2018-04-06T06:55:22.592Z,28.87
2018-04-06T06:57:50.153Z,34.07
2018-04-06T07:00:17.978Z,24.43
2018-04-06T07:02:45.473Z,26.10
2018-04-06T07:05:13.180Z,21.73
2018-04-06T07:07:40.676Z,31.57
2018-04-06T07:10:08.708Z,19.33
2018-04-06T07:12:36.496Z,22.13
2018-04-06T07:15:04.505Z,22.80
2018-04-06T07:17:31.996Z,16.77
2018-04-06T07:19:59.499Z,19.77
2018-04-06T07:22:27.018Z,28.53
2018-04-06T07:24:54.513Z,16.57
2018-04-06T07:27:22.029Z,29.87
2018-04-06T07:29:49.581Z,21.33
2018-04-06T07:32:17.139Z,14.57
2018-04-06T07:34:44.815Z,16.93
2018-04-06T07:37:12.320Z,36.90
2018-04-06T07:39:40.027Z,13.63
2018-04-06T07:42:07.540Z,31.17
2018-04-06T07:44:35.043Z,43.57
2018-04-06T07:47:02.539Z,36.33
2018-04-06T07:49:30.799Z,25.53
2018-04-06T07:51:58.319Z,25.73
2018-04-06T07:54:25.824Z,37.10
2018-04-06T07:56:53.323Z,21.63
2018-04-06T07:59:20.905Z,14.63
2018-04-06T08:01:48.437Z,24.70
2018-04-06T08:04:15.953Z,26.47
2018-04-06T08:06:43.579Z,11.50
2018-04-06T08:09:11.348Z,13.87
2018-04-06T08:11:39.123Z,16.67
2018-04-06T08:14:06.625Z,13.67
2018-04-06T08:16:34.351Z,21.77
2018-04-06T08:19:02.275Z,16.53
2018-04-06T08:21:29.828Z,21.07
2018-04-06T08:23:57.317Z,15.13
2018-04-06T08:26:24.850Z,21.83
2018-04-06T08:28:52.323Z,14.93
2018-04-06T08:31:19.987Z,35.33
2018-04-06T08:33:47.498Z,21.30
2018-04-06T08:36:15.187Z,18.27
2018-04-06T08:38:43.563Z,21.90
2018-04-06T08:41:11.071Z,27.67
2018-04-06T08:43:38.812Z,18.53
2018-04-06T08:46:06.312Z,16.57
2018-04-06T08:48:33.828Z,23.73
2018-04-06T08:51:01.460Z,27.70
2018-04-06T08:53:28.958Z,10.83
2018-04-06T08:55:57.482Z,37.33
2018-04-06T08:58:26.011Z,16.07
2018-04-06T09:00:54.046Z,18.80
2018-04-06T09:03:21.532Z,14.73
2018-04-06T09:05:49.040Z,20.90
2018-04-06T09:08:16.539Z,12.73
2018-04-06T09:10:44.063Z,20.53
2018-04-06T09:13:12.304Z,18.50
2018-04-06T09:15:39.806Z,17.43
2018-04-06T09:18:07.499Z,18.33
2018-04-06T09:20:35.008Z,18.50
2018-04-06T09:23:02.719Z,11.97
2018-04-06T09:25:30.484Z,27.00
2018-04-06T09:27:57.989Z,15.83
2018-04-06T09:30:25.507Z,19.90
2018-04-06T09:32:53.188Z,19.50
2018-04-06T09:35:20.677Z,14.40
2018-04-06T09:37:48.194Z,12.57
2018-04-06T09:40:15.836Z,9.77
2018-04-06T09:42:43.341Z,8.00
2018-04-06T09:45:10.836Z,10.80
2018-04-06T09:47:38.332Z,16.90
2018-04-06T09:50:06.169Z,5.40
2018-04-06T09:52:33.644Z,6.47
2018-04-06T09:55:01.149Z,14.80
2018-04-06T09:57:28.652Z,9.73
2018-04-06T09:59:56.369Z,9.57
2018-04-06T10:02:23.880Z,8.17
2018-04-06T10:04:51.361Z,12.23
2018-04-06T10:07:18.919Z,9.00
2018-04-06T10:09:47.215Z,9.90
2018-04-06T10:12:14.727Z,8.67
2018-04-06T10:14:42.465Z,17.27
2018-04-06T10:17:10.126Z,10.00
2018-04-06T10:19:37.630Z,9.23
2018-04-06T10:22:05.397Z,5.13
2018-04-06T10:24:33.135Z,8.93
2018-04-06T10:27:00.630Z,6.73
2018-04-06T10:29:28.344Z,16.27
2018-04-06T10:31:56.103Z,16.83
2018-04-06T10:34:23.868Z,11.70
2018-04-06T10:36:51.876Z,6.80
2018-04-06T10:39:19.404Z,8.23
2018-04-06T10:41:46.912Z,19.17
2018-04-06T10:44:14.419Z,5.87
2018-04-06T10:46:42.128Z,5.23
2018-04-06T10:49:09.632Z,14.80
2018-04-06T10:51:37.291Z,9.90
2018-04-06T10:54:05.198Z,8.10
2018-04-06T10:56:32.803Z,9.47
2018-04-06T10:59:00.316Z,4.77
2018-04-06T11:01:27.828Z,7.20
2018-04-06T11:03:55.499Z,6.33
2018-04-06T11:06:23.506Z,22.23
2018-04-06T11:08:51.012Z,6.43
2018-04-06T11:11:18.807Z,4.60
2018-04-06T11:13:46.840Z,12.50
2018-04-06T11:16:14.340Z,4.27
2018-04-06T11:18:41.855Z,11.23
2018-04-06T11:21:09.545Z,6.30
2018-04-06T11:23:37.065Z,9.07
2018-04-06T11:26:04.559Z,6.43
2018-04-06T11:28:32.084Z,8.80
2018-04-06T11:30:59.643Z,8.17
2018-04-06T11:33:27.183Z,24.73
2018-04-06T11:35:54.695Z,19.80
2018-04-06T11:38:22.606Z,8.93
2018-04-06T11:40:50.112Z,19.40
2018-04-06T11:43:18.616Z,9.93
2018-04-06T11:45:46.240Z,9.90
2018-04-06T11:48:13.749Z,11.90
2018-04-06T11:50:41.441Z,9.93
2018-04-06T11:53:08.938Z,6.57
2018-04-06T11:55:36.692Z,7.20
2018-04-06T11:58:04.448Z,9.73
2018-04-06T12:00:32.232Z,9.73
2018-04-06T12:03:00.031Z,8.33
2018-04-06T12:05:27.748Z,5.27
2018-04-06T12:07:55.540Z,10.80
2018-04-06T12:10:23.236Z,8.57
2018-04-06T12:12:50.764Z,7.57
2018-04-06T12:15:18.764Z,22.60
2018-04-06T12:17:46.562Z,10.20
2018-04-06T12:20:14.324Z,6.03
2018-04-06T12:22:42.092Z,6.67
2018-04-06T12:25:09.861Z,10.20
2018-04-06T12:27:38.207Z,11.83
2018-04-06T12:30:05.712Z,8.17
2018-04-06T12:32:33.220Z,1.77
2018-04-06T12:35:00.863Z,5.97
2018-04-06T12:37:28.371Z,7.50
2018-04-06T12:39:56.006Z,4.20
2018-04-06T12:42:23.595Z,9.67
2018-04-06T12:44:51.099Z,14.73
2018-04-06T12:47:18.610Z,11.67
2018-04-06T12:49:46.110Z,7.23
2018-04-06T12:52:13.722Z,8.03
2018-04-06T12:54:41.224Z,7.33
2018-04-06T12:57:08.912Z,18.77
2018-04-06T12:59:36.419Z,3.60
2018-04-06T13:02:03.930Z,7.77
2018-04-06T13:04:31.762Z,10.87
2018-04-06T13:07:00.016Z,8.10
2018-04-06T13:09:27.533Z,5.30
2018-04-06T13:11:55.207Z,10.43
2018-04-06T13:14:22.762Z,5.73
2018-04-06T13:16:50.256Z,7.13
2018-04-06T13:19:19.352Z,10.93
2018-04-06T13:21:46.871Z,4.47
2018-04-06T13:24:14.376Z,8.10
2018-04-06T13:26:42.095Z,5.10
2018-04-06T13:29:09.814Z,3.27
2018-04-06T13:31:37.312Z,3.37
2018-04-06T13:34:05.091Z,3.00
2018-04-06T13:36:32.612Z,2.50
2018-04-06T13:39:00.116Z,1.60
2018-04-06T13:41:27.633Z,8.00
2018-04-06T13:43:55.195Z,1.80
2018-04-06T13:46:22.703Z,4.37
2018-04-06T13:48:50.266Z,2.53
2018-04-06T13:51:17.762Z,3.93
2018-04-06T13:53:45.314Z,12.40
2018-04-06T13:56:13.111Z,3.07
2018-04-06T13:58:40.628Z,4.00
2018-04-06T14:01:08.400Z,14.67
2018-04-06T14:03:35.867Z,4.80
2018-04-06T14:06:03.392Z,4.33
2018-04-06T14:08:31.708Z,5.13
2018-04-06T14:10:59.212Z,10.83
2018-04-06T14:13:27.442Z,5.67
2018-04-06T14:15:54.943Z,5.37
2018-04-06T14:18:22.458Z,10.70
2018-04-06T14:20:50.134Z,6.77
2018-04-06T14:23:17.668Z,4.67
2018-04-06T14:25:45.348Z,8.40
2018-04-06T14:28:12.852Z,6.10
2018-04-06T14:30:40.379Z,15.80
2018-04-06T14:33:08.008Z,4.37
2018-04-06T14:35:35.792Z,6.50
2018-04-06T14:38:03.293Z,7.37
2018-04-06T14:40:31.007Z,7.73
2018-04-06T14:42:58.490Z,6.83
2018-04-06T14:45:26.209Z,10.53
2018-04-06T14:47:54.007Z,4.77
2018-04-06T14:50:21.513Z,5.03
2018-04-06T14:52:49.023Z,5.03
2018-04-06T14:55:16.678Z,8.43
2018-04-06T14:57:45.053Z,12.43
2018-04-06T15:00:12.693Z,2.37
2018-04-06T15:02:40.226Z,6.60
2018-04-06T15:05:07.720Z,6.73
2018-04-06T15:07:35.491Z,7.80
2018-04-06T15:10:03.251Z,5.67
2018-04-06T15:12:30.756Z,6.70
2018-04-06T15:14:58.267Z,6.23
2018-04-06T15:17:25.780Z,14.40
2018-04-06T15:19:53.774Z,3.47
2018-04-06T15:22:21.266Z,8.33
2018-04-06T15:24:48.919Z,4.90
2018-04-06T15:27:16.415Z,7.17
2018-04-06T15:29:43.927Z,7.73
2018-04-06T15:32:11.591Z,10.40
2018-04-06T15:34:39.383Z,10.03
2018-04-06T15:37:07.139Z,13.80
2018-04-06T15:39:34.628Z,7.80
2018-04-06T15:42:02.980Z,9.27
2018-04-06T15:44:30.513Z,7.93
2018-04-06T15:46:58.055Z,9.73
2018-04-06T15:49:25.819Z,5.37
2018-04-06T15:51:53.382Z,5.67
2018-04-06T15:54:21.207Z,12.17
2018-04-06T15:56:48.668Z,9.37
2018-04-06T15:59:16.407Z,9.23
2018-04-06T16:01:43.923Z,18.93
2018-04-06T16:04:11.564Z,5.43
2018-04-06T16:06:39.362Z,4.47
2018-04-06T16:09:07.121Z,8.33
2018-04-06T16:11:34.618Z,4.00
2018-04-06T16:14:02.127Z,6.10
2018-04-06T16:16:29.995Z,5.73
2018-04-06T16:18:58.592Z,8.10
2018-04-06T16:21:26.109Z,8.10
2018-04-06T16:23:53.599Z,8.00
2018-04-06T16:26:21.112Z,5.83
2018-04-06T16:28:48.619Z,6.93
2018-04-06T16:31:16.397Z,4.60
2018-04-06T16:33:43.895Z,2.50
2018-04-06T16:36:11.522Z,5.90
2018-04-06T16:38:39.080Z,6.53
2018-04-06T16:41:06.819Z,2.90
2018-04-06T16:43:34.584Z,3.50
2018-04-06T16:46:02.368Z,7.23
2018-04-06T16:48:29.871Z,6.30
2018-04-06T16:50:57.502Z,4.13
2018-04-06T16:53:25.001Z,10.10
2018-04-06T16:55:52.787Z,9.30
2018-04-06T16:58:20.291Z,17.53
2018-04-06T17:00:48.347Z,8.70
2018-04-06T17:03:15.899Z,6.60
2018-04-06T17:05:43.401Z,5.87
2018-04-06T17:08:10.974Z,11.40
2018-04-06T17:10:38.635Z,7.23
2018-04-06T17:13:07.126Z,7.93
2018-04-06T17:15:34.825Z,8.47
2018-04-06T17:18:02.847Z,11.63
2018-04-06T17:20:30.561Z,6.50
2018-04-06T17:22:58.839Z,5.53
2018-04-06T17:25:26.748Z,4.93
2018-04-06T17:27:54.335Z,3.90
2018-04-06T17:30:21.867Z,4.87
2018-04-06T17:32:49.364Z,5.97
2018-04-06T17:35:17.010Z,27.40
2018-04-06T17:37:45.055Z,5.07
2018-04-06T17:40:12.576Z,18.07
2018-04-06T17:42:40.075Z,30.63
2018-04-06T17:45:07.691Z,84.63
2018-04-06T17:47:35.216Z,12.97
2018-04-06T17:50:02.736Z,10.87
2018-04-06T17:52:30.431Z,4.47
2018-04-06T17:54:57.957Z,14.30
2018-04-06T17:57:26.344Z,10.30
2018-04-06T17:59:53.861Z,8.73
2018-04-06T18:02:21.524Z,10.60
2018-04-06T18:04:49.274Z,11.37
2018-04-06T18:07:16.777Z,8.70
2018-04-06T18:09:44.291Z,4.83
2018-04-06T18:12:11.800Z,7.07
2018-04-06T18:14:39.302Z,10.53
2018-04-06T18:17:06.806Z,16.50
2018-04-06T18:19:34.315Z,10.37
2018-04-06T18:22:01.851Z,14.20
2018-04-06T18:24:29.368Z,17.93
2018-04-06T18:26:57.905Z,16.53
2018-04-06T18:29:25.661Z,8.93
2018-04-06T18:31:53.163Z,19.33
2018-04-06T18:34:20.662Z,7.30
2018-04-06T18:36:48.357Z,9.50
2018-04-06T18:39:15.861Z,5.70
2018-04-06T18:41:43.556Z,13.63
2018-04-06T18:44:11.065Z,10.13
2018-04-06T18:46:38.588Z,9.73
2018-04-06T18:49:06.098Z,12.23
2018-04-06T18:51:33.601Z,8.60
2018-04-06T18:54:01.112Z,11.33
2018-04-06T18:56:28.628Z,10.53
2018-04-06T18:58:56.130Z,7.10
2018-04-06T19:01:24.138Z,10.10
2018-04-06T19:03:51.676Z,13.97
2018-04-06T19:06:20.143Z,23.53
2018-04-06T19:08:47.651Z,16.50
2018-04-06T19:11:15.200Z,9.60
2018-04-06T19:13:42.720Z,12.23
2018-04-06T19:16:10.403Z,15.00
2018-04-06T19:18:37.923Z,8.83
2018-04-06T19:21:05.624Z,12.80
2018-04-06T19:23:33.123Z,9.23
2018-04-06T19:26:01.372Z,18.53
2018-04-06T19:28:28.926Z,8.33
2018-04-06T19:30:56.454Z,28.37
2018-04-06T19:33:24.148Z,12.87
2018-04-06T19:35:51.662Z,12.70
2018-04-06T19:38:19.175Z,9.67
2018-04-06T19:40:46.712Z,9.60
2018-04-06T19:43:14.247Z,7.13
2018-04-06T19:45:42.039Z,9.67
2018-04-06T19:48:09.564Z,8.13
2018-04-06T19:50:37.072Z,11.97
2018-04-06T19:53:04.718Z,9.50
2018-04-06T19:55:32.337Z,6.07
2018-04-06T19:57:59.838Z,9.63
2018-04-06T20:00:27.391Z,5.13
2018-04-06T20:02:54.891Z,6.80
2018-04-06T20:05:22.587Z,10.90
2018-04-06T20:07:50.095Z,10.03
2018-04-06T20:10:17.597Z,11.93
2018-04-06T20:12:45.262Z,10.80
2018-04-06T20:15:12.759Z,12.20
2018-04-06T20:17:40.308Z,6.20
2018-04-06T20:20:07.933Z,8.57
2018-04-06T20:22:35.434Z,11.73
2018-04-06T20:25:03.206Z,7.20
2018-04-06T20:27:30.745Z,9.77
2018-04-06T20:29:58.240Z,18.03
2018-04-06T20:32:26.517Z,25.40
2018-04-06T20:34:54.040Z,10.97
2018-04-06T20:37:22.984Z,17.73
2018-04-06T20:39:50.655Z,6.77
2018-04-06T20:42:18.154Z,4.67
2018-04-06T20:44:45.911Z,9.83
2018-04-06T20:47:13.670Z,12.13
2018-04-06T20:49:43.898Z,23.93
2018-04-06T20:52:11.432Z,7.70
2018-04-06T20:54:39.080Z,11.63
2018-04-06T20:57:06.864Z,15.07
2018-04-06T20:59:34.368Z,10.53
2018-04-06T21:02:01.934Z,10.00
2018-04-06T21:04:30.196Z,7.83
2018-04-06T21:06:57.751Z,9.23
2018-04-06T21:09:25.898Z,15.43
2018-04-06T21:11:53.476Z,22.43
2018-04-06T21:14:21.221Z,10.70
2018-04-06T21:16:48.784Z,12.33
2018-04-06T21:19:16.314Z,20.00
2018-04-06T21:21:43.867Z,21.87
2018-04-06T21:24:11.681Z,7.93
2018-04-06T21:26:39.173Z,11.67
2018-04-06T21:29:06.676Z,6.43
2018-04-06T21:31:34.206Z,9.27
2018-04-06T21:34:01.714Z,24.53
2018-04-06T21:36:29.227Z,7.10
2018-04-06T21:38:56.716Z,9.07
2018-04-06T21:41:24.303Z,10.13
2018-04-06T21:43:52.848Z,12.23
2018-04-06T21:46:20.338Z,12.83
2018-04-06T21:48:47.861Z,15.40
2018-04-06T21:51:15.362Z,8.87
2018-04-06T21:53:43.804Z,7.47
2018-04-06T21:56:11.353Z,7.00
2018-04-06T21:58:38.863Z,5.97
2018-04-06T22:01:06.556Z,9.53
2018-04-06T22:03:34.060Z,10.93
2018-04-06T22:06:01.575Z,10.07
2018-04-06T22:08:29.256Z,12.30
2018-04-06T22:10:56.763Z,11.10
2018-04-06T22:13:24.286Z,16.13
2018-04-06T22:15:52.562Z,13.70
2018-04-06T22:18:20.418Z,17.03
2018-04-06T22:20:48.091Z,10.03
2018-04-06T22:23:15.602Z,17.50
2018-04-06T22:25:43.312Z,10.03
2018-04-06T22:28:10.935Z,13.20
2018-04-06T22:30:38.427Z,8.97
2018-04-06T22:33:05.966Z,11.20
2018-04-06T22:35:33.452Z,9.20
2018-04-06T22:38:00.974Z,15.13
2018-04-06T22:40:28.476Z,10.50
2018-04-06T22:42:56.748Z,6.30
2018-04-06T22:45:24.267Z,8.73
2018-04-06T22:47:51.944Z,9.10
2018-04-06T22:50:19.693Z,14.00
2018-04-06T22:52:47.188Z,6.40
2018-04-06T22:55:14.708Z,10.57
2018-04-06T22:57:42.212Z,10.87
2018-04-06T23:00:10.582Z,15.07
2018-04-06T23:02:38.856Z,5.97
2018-04-06T23:05:06.351Z,8.90
2018-04-06T23:07:33.848Z,11.40
2018-04-06T23:10:01.524Z,13.10
2018-04-06T23:12:29.273Z,13.97
2018-04-06T23:14:57.031Z,15.17
2018-04-06T23:17:24.528Z,8.33
2018-04-06T23:19:52.256Z,9.10
2018-04-06T23:22:19.784Z,18.47
2018-04-06T23:24:47.499Z,15.23
2018-04-06T23:27:15.002Z,12.87
2018-04-06T23:29:42.508Z,8.70
2018-04-06T23:32:10.243Z,13.20
2018-04-06T23:34:37.919Z,10.07
2018-04-06T23:37:05.443Z,13.80
2018-04-06T23:39:32.969Z,10.17
2018-04-06T23:42:01.511Z,12.57
2018-04-06T23:44:29.011Z,13.73
2018-04-06T23:46:56.512Z,10.80
2018-04-06T23:49:24.183Z,13.13
2018-04-06T23:51:51.667Z,7.73
2018-04-06T23:54:19.220Z,10.70
2018-04-06T23:56:46.835Z,8.53
2018-04-06T23:59:14.341Z,12.17
